createdAt,value
2022-11-03T00:02:13.545Z,20.33
2022-11-03T00:05:38.128Z,19.02
2022-11-03T00:08:44.602Z,20.90
2022-11-03T00:11:51.990Z,19.33
2022-11-03T00:14:57.326Z,20.88
2022-11-03T00:18:02.908Z,20.10
2022-11-03T00:21:11.069Z,19.90
2022-11-03T00:24:16.599Z,19.83
2022-11-03T00:27:21.926Z,20.13
2022-11-03T00:30:27.872Z,20.65
2022-11-03T00:33:34.124Z,19.73
2022-11-03T00:36:42.252Z,18.35
2022-11-03T00:39:47.493Z,19.08
2022-11-03T00:42:52.910Z,19.23
2022-11-03T00:45:59.324Z,19.00
2022-11-03T00:49:05.448Z,18.00
2022-11-03T00:52:11.039Z,19.38
2022-11-03T00:55:16.698Z,18.35
2022-11-03T00:58:22.749Z,18.85
2022-11-03T01:01:38.232Z,19.60
2022-11-03T01:05:06.560Z,18.77
2022-11-03T01:08:11.809Z,22.73
2022-11-03T01:11:39.372Z,20.80
2022-11-03T01:14:51.706Z,19.60
2022-11-03T01:17:58.654Z,19.00
2022-11-03T01:21:04.123Z,19.75
2022-11-03T01:24:09.675Z,18.88
2022-11-03T01:27:17.666Z,19.48
2022-11-03T01:30:23.380Z,19.33
2022-11-03T01:33:28.601Z,20.95
2022-11-03T01:36:34.049Z,20.48
2022-11-03T01:39:39.215Z,20.58
2022-11-03T01:42:44.441Z,20.58
2022-11-03T01:46:19.520Z,20.40
2022-11-03T01:49:51.429Z,19.95
2022-11-03T01:52:59.162Z,20.83
2022-11-03T01:56:05.540Z,19.23
2022-11-03T01:59:11.790Z,21.00
2022-11-03T02:02:17.062Z,21.13
2022-11-03T02:05:26.340Z,21.50
2022-11-03T02:08:53.732Z,22.73
2022-11-03T02:12:08.658Z,19.65
2022-11-03T02:15:19.029Z,20.33
2022-11-03T02:18:29.271Z,20.92
2022-11-03T02:21:49.416Z,20.40
2022-11-03T02:25:20.030Z,21.65
2022-11-03T02:28:28.284Z,19.95
2022-11-03T02:31:43.555Z,21.50
2022-11-03T02:34:57.166Z,20.92
2022-11-03T02:38:06.753Z,20.88
2022-11-03T02:41:13.662Z,22.73
2022-11-03T02:44:21.023Z,21.38
2022-11-03T02:47:30.763Z,21.77
2022-11-03T02:50:36.419Z,22.45
2022-11-03T02:54:28.575Z,22.63
2022-11-03T02:57:39.114Z,22.55
2022-11-03T03:00:53.952Z,23.38
2022-11-03T03:04:05.633Z,21.90
2022-11-03T03:07:20.093Z,20.00
2022-11-03T03:10:29.379Z,21.85
2022-11-03T03:13:35.051Z,22.33
2022-11-03T03:16:59.122Z,20.60
2022-11-03T03:20:14.439Z,21.60
2022-11-03T03:23:24.197Z,21.38
2022-11-03T03:26:42.793Z,22.70
2022-11-03T03:29:53.994Z,21.95
2022-11-03T03:33:01.825Z,23.35
2022-11-03T03:36:13.835Z,21.92
2022-11-03T03:39:22.634Z,21.55
2022-11-03T03:42:29.835Z,22.13
2022-11-03T03:45:37.231Z,20.23
2022-11-03T03:48:43.503Z,20.48
2022-11-03T03:51:50.668Z,20.90
2022-11-03T03:54:57.043Z,24.35
2022-11-03T03:58:04.572Z,23.35
2022-11-03T04:01:13.007Z,23.75
2022-11-03T04:04:19.241Z,22.58
2022-11-03T04:07:43.968Z,23.95
2022-11-03T04:11:08.304Z,22.38
2022-11-03T04:14:32.134Z,23.85
2022-11-03T04:18:02.496Z,21.30
2022-11-03T04:21:30.392Z,22.52
2022-11-03T04:24:35.757Z,22.55
2022-11-03T04:27:44.906Z,22.00
2022-11-03T04:30:53.379Z,22.58
2022-11-03T04:34:05.033Z,23.70
2022-11-03T04:37:14.364Z,24.33
2022-11-03T04:40:19.883Z,23.00
2022-11-03T04:43:37.392Z,23.17
2022-11-03T04:46:44.709Z,22.40
2022-11-03T04:49:50.257Z,22.35
2022-11-03T04:52:58.807Z,23.23
2022-11-03T04:56:15.819Z,22.42
2022-11-03T04:59:21.436Z,22.35
2022-11-03T05:02:27.267Z,22.55
2022-11-03T05:05:33.083Z,22.83
2022-11-03T05:08:38.855Z,24.02
2022-11-03T05:11:48.155Z,23.65
2022-11-03T05:14:58.033Z,24.52
2022-11-03T05:18:31.857Z,25.38
2022-11-03T05:21:37.527Z,24.67
2022-11-03T05:24:44.550Z,23.90
2022-11-03T05:27:49.921Z,23.42
2022-11-03T05:30:56.153Z,22.98
2022-11-03T05:34:07.624Z,22.85
2022-11-03T05:37:32.820Z,22.25
2022-11-03T05:40:38.236Z,23.85
2022-11-03T05:43:43.898Z,24.58
2022-11-03T05:46:49.589Z,21.98
2022-11-03T05:50:01.260Z,22.60
2022-11-03T05:56:26.425Z,20.88
2022-11-03T05:59:31.941Z,21.13
2022-11-03T06:02:43.694Z,19.88
2022-11-03T06:05:49.342Z,22.20
2022-11-03T06:08:58.273Z,20.38
2022-11-03T06:12:07.457Z,21.05
2022-11-03T06:15:28.119Z,20.23
2022-11-03T06:18:36.859Z,21.30
2022-11-03T06:21:44.782Z,22.55
2022-11-03T06:24:51.572Z,20.63
2022-11-03T06:28:02.420Z,22.30
2022-11-03T06:31:28.029Z,20.42
2022-11-03T06:34:57.884Z,21.52
2022-11-03T06:38:02.961Z,19.17
2022-11-03T06:41:21.051Z,20.05
2022-11-03T06:44:29.069Z,20.17
2022-11-03T06:47:34.665Z,20.08
2022-11-03T06:50:44.603Z,19.75
2022-11-03T06:53:52.606Z,19.45
2022-11-03T06:56:58.228Z,18.15
2022-11-03T07:00:33.468Z,19.90
2022-11-03T07:03:41.487Z,18.85
2022-11-03T07:06:53.588Z,21.45
2022-11-03T07:09:59.437Z,20.23
2022-11-03T07:13:20.399Z,19.23
2022-11-03T07:16:41.640Z,19.70
2022-11-03T07:19:46.822Z,19.17
2022-11-03T07:22:53.024Z,19.38
2022-11-03T07:26:02.537Z,19.45
2022-11-03T07:29:15.107Z,19.90
2022-11-03T07:32:24.555Z,18.17
2022-11-03T07:36:08.331Z,20.83
2022-11-03T07:39:03.807Z,19.13
2022-11-03T07:42:23.003Z,18.48
2022-11-03T07:45:37.389Z,18.80
2022-11-03T07:48:49.652Z,18.60
2022-11-03T07:52:00.408Z,20.60
2022-11-03T07:55:11.553Z,20.08
2022-11-03T07:58:28.665Z,20.92
2022-11-03T08:01:42.414Z,24.52
2022-11-03T08:04:48.003Z,26.27
2022-11-03T08:07:53.201Z,27.73
2022-11-03T08:10:59.268Z,26.52
2022-11-03T08:14:04.729Z,30.42
2022-11-03T08:17:10.321Z,28.92
2022-11-03T08:20:16.305Z,28.60
2022-11-03T08:23:26.373Z,28.20
2022-11-03T08:26:32.249Z,29.00
2022-11-03T08:29:37.533Z,28.13
2022-11-03T08:32:42.956Z,28.75
2022-11-03T08:35:47.892Z,28.35
2022-11-03T08:38:53.762Z,29.25
2022-11-03T08:41:59.025Z,29.60
2022-11-03T08:45:04.994Z,29.50
2022-11-03T08:48:10.281Z,30.15
2022-11-03T08:51:16.456Z,31.95
2022-11-03T08:54:21.772Z,31.70
2022-11-03T08:57:27.305Z,31.92
2022-11-03T09:00:35.919Z,35.55
2022-11-03T09:03:43.949Z,38.67
2022-11-03T09:06:49.365Z,39.40
2022-11-03T09:13:20.040Z,40.63
2022-11-03T09:16:25.099Z,39.58
2022-11-03T09:19:30.279Z,39.03
2022-11-03T09:22:35.808Z,38.65
2022-11-03T09:25:41.389Z,34.75
2022-11-03T09:28:46.711Z,36.88
2022-11-03T09:31:52.379Z,39.55
2022-11-03T09:34:57.437Z,38.15
2022-11-03T09:38:02.699Z,38.22
2022-11-03T09:41:18.720Z,40.22
2022-11-03T09:44:36.738Z,39.90
2022-11-03T09:47:45.707Z,43.30
2022-11-03T09:50:54.562Z,41.58
2022-11-03T09:54:04.870Z,39.80
2022-11-03T09:57:13.280Z,38.28
2022-11-03T10:00:23.879Z,43.55
2022-11-03T10:03:30.459Z,39.22
2022-11-03T10:06:35.647Z,41.80
2022-11-03T10:09:48.395Z,41.75
2022-11-03T10:12:56.282Z,40.70
2022-11-03T10:16:05.628Z,42.55
2022-11-03T10:19:14.539Z,42.00
2022-11-03T10:22:21.438Z,42.95
2022-11-03T10:25:43.900Z,42.90
2022-11-03T10:29:01.416Z,42.28
2022-11-03T10:32:31.484Z,38.38
2022-11-03T10:35:37.079Z,38.75
2022-11-03T10:38:46.298Z,37.28
2022-11-03T10:41:59.637Z,38.72
2022-11-03T10:45:14.816Z,38.85
2022-11-03T10:48:20.337Z,38.92
2022-11-03T10:51:26.119Z,40.65
2022-11-03T10:54:31.898Z,39.38
2022-11-03T10:57:37.939Z,39.13
2022-11-03T11:00:43.574Z,38.92
2022-11-03T11:03:49.998Z,36.90
2022-11-03T11:06:56.017Z,36.47
2022-11-03T11:10:19.791Z,37.28
2022-11-03T11:13:27.893Z,37.45
2022-11-03T11:16:57.573Z,34.22
2022-11-03T11:20:33.582Z,34.13
2022-11-03T11:23:39.350Z,34.88
2022-11-03T11:26:48.211Z,32.80
2022-11-03T11:29:53.886Z,32.67
2022-11-03T11:33:15.022Z,32.90
2022-11-03T11:36:23.808Z,33.53
2022-11-03T11:39:31.431Z,33.47
2022-11-03T11:43:03.014Z,30.15
2022-11-03T11:46:24.038Z,32.00
2022-11-03T11:49:29.518Z,32.07
2022-11-03T11:52:59.658Z,28.73
2022-11-03T11:56:05.848Z,27.67
2022-11-03T11:59:25.088Z,30.50
2022-11-03T12:02:31.453Z,28.63
2022-11-03T12:05:37.364Z,29.23
2022-11-03T12:08:44.381Z,28.52
2022-11-03T12:11:53.854Z,25.65
2022-11-03T12:15:00.965Z,27.25
2022-11-03T12:18:36.548Z,28.23
2022-11-03T12:21:49.895Z,27.73
2022-11-03T12:25:01.052Z,28.15
2022-11-03T12:28:06.814Z,25.63
2022-11-03T12:31:12.879Z,25.80
2022-11-03T12:34:18.636Z,27.40
2022-11-03T12:37:24.448Z,27.85
2022-11-03T12:40:29.903Z,27.80
2022-11-03T12:43:35.440Z,29.05
2022-11-03T12:46:40.945Z,26.60
2022-11-03T12:49:46.739Z,27.48
2022-11-03T12:52:52.277Z,28.55
2022-11-03T12:55:58.343Z,28.23
2022-11-03T12:59:04.383Z,28.80
2022-11-03T13:02:11.866Z,26.80
2022-11-03T13:05:17.578Z,27.42
2022-11-03T13:08:23.112Z,28.25
2022-11-03T13:11:47.178Z,27.25
2022-11-03T13:14:52.492Z,25.52
2022-11-03T13:18:14.255Z,26.60
2022-11-03T13:21:21.090Z,25.50
2022-11-03T13:24:26.733Z,25.35
2022-11-03T13:27:32.615Z,25.05
2022-11-03T13:30:37.856Z,26.17
2022-11-03T13:33:43.324Z,24.02
2022-11-03T13:36:48.582Z,23.67
2022-11-03T13:39:54.068Z,23.30
2022-11-03T13:42:59.213Z,24.00
2022-11-03T13:46:05.530Z,24.73
2022-11-03T13:52:37.470Z,24.63
2022-11-03T13:55:43.228Z,24.48
2022-11-03T14:05:42.163Z,25.25
2022-11-03T14:08:47.402Z,25.10
2022-11-03T14:12:11.491Z,24.67
2022-11-03T14:15:17.088Z,23.77
2022-11-03T14:18:22.536Z,27.58
2022-11-03T14:21:28.506Z,27.25
2022-11-03T14:24:33.933Z,25.27
2022-11-03T14:27:39.252Z,26.25
2022-11-03T14:30:44.363Z,25.55
2022-11-03T14:33:50.164Z,26.27
2022-11-03T14:36:55.873Z,27.17
2022-11-03T14:40:01.580Z,26.55
2022-11-03T14:43:07.344Z,27.25
2022-11-03T14:46:13.309Z,26.13
2022-11-03T14:49:19.290Z,29.83
2022-11-03T14:52:24.752Z,25.55
2022-11-03T14:55:30.377Z,30.15
2022-11-03T14:58:35.960Z,28.10
2022-11-03T15:01:41.403Z,29.65
2022-11-03T15:04:47.357Z,26.13
2022-11-03T15:07:52.597Z,28.60
2022-11-03T15:10:58.291Z,28.65
2022-11-03T15:14:04.347Z,29.50
2022-11-03T15:17:09.846Z,29.98
2022-11-03T15:20:15.198Z,29.73
2022-11-03T15:26:47.042Z,30.55
2022-11-03T15:29:52.632Z,30.35
2022-11-03T15:32:58.236Z,30.52
2022-11-03T15:36:04.929Z,30.63
2022-11-03T15:39:10.655Z,31.00
2022-11-03T15:42:15.988Z,33.33
2022-11-03T15:45:21.687Z,32.22
2022-11-03T15:48:32.052Z,33.47
2022-11-03T15:51:40.088Z,35.00
2022-11-03T15:54:45.494Z,35.28
2022-11-03T15:57:51.327Z,34.05
2022-11-03T16:00:57.163Z,34.35
2022-11-03T16:04:02.882Z,34.60
2022-11-03T16:07:08.881Z,33.53
2022-11-03T16:10:15.523Z,32.80
2022-11-03T16:13:20.965Z,31.27
2022-11-03T16:16:26.585Z,31.65
2022-11-03T16:19:32.220Z,33.22
2022-11-03T16:22:37.781Z,35.03
2022-11-03T16:25:43.338Z,35.15
2022-11-03T16:28:48.687Z,32.95
2022-11-03T16:31:54.460Z,34.13
2022-11-03T16:34:59.848Z,36.25
2022-11-03T16:38:06.732Z,36.47
2022-11-03T16:41:13.483Z,35.60
2022-11-03T16:44:18.739Z,38.53
2022-11-03T16:47:27.309Z,36.13
2022-11-03T16:50:33.477Z,36.63
2022-11-03T16:53:38.544Z,38.47
2022-11-03T16:56:44.717Z,40.17
2022-11-03T16:59:50.157Z,37.50
2022-11-03T17:02:55.541Z,39.88
2022-11-03T17:06:01.511Z,37.38
2022-11-03T17:09:07.038Z,39.38
2022-11-03T17:12:12.992Z,37.78
2022-11-03T17:15:18.911Z,40.83
2022-11-03T17:18:24.379Z,39.65
2022-11-03T17:21:30.199Z,40.25
2022-11-03T17:24:35.988Z,41.28
2022-11-03T17:28:03.911Z,42.50
2022-11-03T17:31:09.402Z,39.42
2022-11-03T17:34:23.096Z,38.53
2022-11-03T17:37:28.754Z,39.92
2022-11-03T17:40:35.054Z,41.10
2022-11-03T17:43:41.621Z,42.05
2022-11-03T17:46:46.974Z,40.92
2022-11-03T17:49:52.631Z,40.90
2022-11-03T17:52:58.276Z,43.55
2022-11-03T17:56:28.906Z,40.75
2022-11-03T17:59:30.132Z,41.45
2022-11-03T18:02:38.331Z,40.28
2022-11-03T18:05:45.286Z,41.22
2022-11-03T18:08:50.748Z,39.00
2022-11-03T18:12:15.066Z,37.90
2022-11-03T18:15:23.779Z,37.72
2022-11-03T18:18:38.095Z,40.05
2022-11-03T18:21:44.639Z,40.10
2022-11-03T18:24:52.146Z,37.60
2022-11-03T18:27:57.745Z,39.72
2022-11-03T18:31:03.523Z,39.40
2022-11-03T18:34:19.064Z,38.05
2022-11-03T18:37:24.822Z,39.65
2022-11-03T18:40:32.430Z,42.78
2022-11-03T18:43:38.200Z,40.72
2022-11-03T18:46:43.933Z,40.53
2022-11-03T18:49:49.450Z,43.88
2022-11-03T18:52:55.092Z,39.80
2022-11-03T18:56:01.843Z,41.78
2022-11-03T18:59:37.842Z,39.80
2022-11-03T19:02:43.563Z,41.75
2022-11-03T19:05:51.967Z,40.17
2022-11-03T19:09:00.629Z,42.08
2022-11-03T19:12:07.513Z,43.45
2022-11-03T19:15:23.133Z,42.33
2022-11-03T19:18:32.514Z,40.92
2022-11-03T19:21:37.625Z,40.67
2022-11-03T19:24:45.512Z,43.80
2022-11-03T19:27:50.991Z,42.67
2022-11-03T19:30:58.084Z,42.20
2022-11-03T19:34:07.629Z,41.42
2022-11-03T19:37:12.945Z,42.67
2022-11-03T19:40:20.644Z,40.40
2022-11-03T19:43:30.443Z,41.97
2022-11-03T19:46:41.959Z,41.22
2022-11-03T19:49:47.917Z,42.78
2022-11-03T19:53:04.283Z,41.10
2022-11-03T19:56:10.481Z,43.58
2022-11-03T19:59:18.184Z,47.00
2022-11-03T20:02:24.355Z,44.22
2022-11-03T20:05:30.796Z,45.17
2022-11-03T20:08:37.782Z,43.42
2022-11-03T20:11:43.629Z,47.13
2022-11-03T20:14:48.999Z,51.55
2022-11-03T20:17:54.319Z,47.88
2022-11-03T20:21:00.082Z,50.53
2022-11-03T20:24:06.220Z,49.00
2022-11-03T20:27:12.181Z,52.38
2022-11-03T20:30:21.036Z,49.17
2022-11-03T20:33:27.841Z,47.50
2022-11-03T20:36:33.936Z,51.85
2022-11-03T20:39:40.941Z,51.65
2022-11-03T20:42:49.137Z,51.58
2022-11-03T20:45:55.662Z,47.53
2022-11-03T20:49:01.478Z,48.25
2022-11-03T20:52:10.523Z,49.13
2022-11-03T20:55:24.734Z,48.88
2022-11-03T20:58:30.616Z,49.35
2022-11-03T21:01:36.765Z,51.80
2022-11-03T21:04:44.340Z,51.58
2022-11-03T21:07:50.750Z,50.25
2022-11-03T21:11:16.489Z,50.90
2022-11-03T21:14:26.199Z,51.85
2022-11-03T21:17:50.372Z,50.38
2022-11-03T21:20:56.277Z,50.65
2022-11-03T21:24:01.542Z,50.13
2022-11-03T21:27:07.187Z,52.13
2022-11-03T21:30:19.204Z,52.15
2022-11-03T21:33:27.298Z,54.85
2022-11-03T21:36:33.731Z,50.63
2022-11-03T21:39:39.449Z,50.92
2022-11-03T21:43:03.131Z,55.33
2022-11-03T21:46:11.313Z,54.55
2022-11-03T21:49:35.632Z,55.08
2022-11-03T21:52:40.722Z,51.30
2022-11-03T21:55:52.160Z,55.00
2022-11-03T22:02:04.591Z,55.50
2022-11-03T22:05:11.036Z,52.95
2022-11-03T22:08:16.535Z,53.42
2022-11-03T22:11:21.728Z,53.83
2022-11-03T22:14:29.411Z,56.67
2022-11-03T22:17:35.009Z,55.38
2022-11-03T22:20:59.389Z,54.70
2022-11-03T22:24:23.678Z,53.42
2022-11-03T22:27:31.273Z,52.40
2022-11-03T22:30:58.399Z,52.42
2022-11-03T22:34:22.499Z,52.80
2022-11-03T22:40:52.631Z,52.47
2022-11-03T22:44:16.545Z,54.10
2022-11-03T22:47:22.241Z,50.47
2022-11-03T22:50:27.534Z,54.15
2022-11-03T22:53:53.318Z,51.90
2022-11-03T22:56:58.605Z,51.08
2022-11-03T23:00:06.296Z,53.15
2022-11-03T23:03:11.835Z,51.35
2022-11-03T23:06:20.491Z,49.92
2022-11-03T23:09:25.630Z,50.97
2022-11-03T23:12:31.865Z,49.30
2022-11-03T23:15:43.902Z,47.58
2022-11-03T23:19:07.941Z,47.80
2022-11-03T23:22:13.224Z,48.40
2022-11-03T23:25:18.701Z,47.45
2022-11-03T23:28:24.211Z,48.55
2022-11-03T23:31:29.885Z,47.42
2022-11-03T23:34:35.823Z,46.35
2022-11-03T23:37:41.731Z,45.30
2022-11-03T23:40:47.314Z,47.22
2022-11-03T23:43:53.243Z,47.53
2022-11-03T23:47:17.126Z,46.63
2022-11-03T23:50:22.602Z,45.78
2022-11-03T23:53:27.641Z,44.80
2022-11-03T23:57:00.250Z,45.90
